60M weather

Public forecast

Using degrees Fahrenheit for public forecast. Weather courtesy of forecast.io.

Closest aviation weather report (METAR) to Spencer Airport

Closest report is Worcester Regional Airport, 4.2 nm (7.8 km) ESE. Retrieved 2020/08/09 15:54 UTC (2 hours ago):

KORH 091554Z 26006KT 10SM CLR 28/18 A3012 RMK AO2 SLP194 T02780183

Closest aviation forecast (TAF) to Spencer Airport

Closest forecast is Worcester Regional Airport, 4.2 nm (7.8 km) ESE. Retrieved 2020/08/09 12:22 UTC (5 hours ago):

TAF KORH 091120Z 0912/1012 25004KT P6SM BKN003 FM091300 26004KT P6SM BKN150 FM091800 24005KT P6SM VCSH SCT050 FM100000 22004KT P6SM SCT050 FM100800 25004KT P6SM SCT050